40J

Perry-Foley Airport

Perry, Florida, USA
METAR K40J 210515Z AUTO 00000KT 10SM CLR 26/24 A3009 RMK AO2 T02550243
Observed Flight Rules
Aug-21 @ 05:15 UTC (12 hours ago) Visual Flight Rules
Visibility Clouds
10 miles
  • Clear skies
Temperatures Readings
Current 26°C / 79°F
Dewpoint 24°C / 75°F
Humidity 89%
Altimeter 30.09" Hg
Pressure 1019 hPa
Elevation 13
METAR K40J 210515Z AUTO 00000KT 10SM CLR 26/24 A3009 RMK AO2 T02550243
Observed Flight Rules
Aug-21 @ 05:15 UTC
(12 hours ago)
VFR
Clouds
  • Clear skies
Temperature Dewpoint
26°C / 79°F 24°C / 75°F
Humidity Altimeter Pressure
89% 30.09" Hg 1019 hPa